Haugan, Montana
Current Conditions -  °F | °C
As of 11:53 AM on Thursday 27 Nov 2014 (Local Time) from KMLP Reporting Station
Overcast Overcast  
Wind Chill: 28°   Ceiling: 4300
Heat Index: 37°   Visibility: 10mi
Dew Point: 33°   Wind: 16mph
Humidity: 86%   Direction: 210°SSW
Pressure: 29.92"   Gusts: 35mph
Location:  47.39°N, 115.4°W
Report Text: KMLP 271853Z AUTO 21014G30KT 170V240 10SM SCT030 BKN043 OVC060 03/01 A2992 RMK AO2 PK WND 22030/1849 RAE46 SLP093 P0001 T00280006
Loading
Personal Weather Stations






























Interactive Weather Map New forecast layout! Learn more

10-Day Weather Forecast

Advertisements
Track Severe Weather on mobile